sensor_id;sensor_type;location;lat;lon;timestamp;pressure;altitude;pressure_sealevel;temperature;humidity
35892;BME280;21993;42.672;23.296;2023-03-11T00:00:26;92951.25;;;12.85;78.70
35892;BME280;21993;42.672;23.296;2023-03-11T00:02:54;92957.97;;;12.87;78.32
35892;BME280;21993;42.672;23.296;2023-03-11T00:05:23;92955.34;;;12.87;77.07
35892;BME280;21993;42.672;23.296;2023-03-11T00:07:49;92938.50;;;12.82;76.38
35892;BME280;21993;42.672;23.296;2023-03-11T00:10:17;92938.97;;;12.64;76.43
35892;BME280;21993;42.672;23.296;2023-03-11T00:12:43;92949.25;;;12.59;76.30
35892;BME280;21993;42.672;23.296;2023-03-11T00:15:09;92946.47;;;12.67;76.47
35892;BME280;21993;42.672;23.296;2023-03-11T00:17:35;92941.00;;;12.62;76.45
35892;BME280;21993;42.672;23.296;2023-03-11T00:20:01;92935.91;;;12.60;77.09
35892;BME280;21993;42.672;23.296;2023-03-11T00:22:26;92927.19;;;12.60;77.25
35892;BME280;21993;42.672;23.296;2023-03-11T00:24:51;92938.81;;;12.44;77.30
35892;BME280;21993;42.672;23.296;2023-03-11T00:27:17;92938.66;;;12.52;76.91
35892;BME280;21993;42.672;23.296;2023-03-11T00:29:42;92932.91;;;12.63;76.82
35892;BME280;21993;42.672;23.296;2023-03-11T00:32:08;92930.41;;;12.55;77.21
35892;BME280;21993;42.672;23.296;2023-03-11T00:34:33;92926.56;;;12.58;76.95
35892;BME280;21993;42.672;23.296;2023-03-11T00:36:58;92917.63;;;12.52;76.80
35892;BME280;21993;42.672;23.296;2023-03-11T00:39:24;92920.03;;;12.47;76.44
35892;BME280;21993;42.672;23.296;2023-03-11T00:41:49;92934.81;;;12.48;76.37
35892;BME280;21993;42.672;23.296;2023-03-11T00:44:15;92927.78;;;12.55;75.93
35892;BME280;21993;42.672;23.296;2023-03-11T00:46:41;92914.38;;;12.50;76.67
35892;BME280;21993;42.672;23.296;2023-03-11T00:49:06;92916.38;;;12.48;76.09
35892;BME280;21993;42.672;23.296;2023-03-11T00:51:32;92892.50;;;12.50;75.85
35892;BME280;21993;42.672;23.296;2023-03-11T00:53:57;92888.09;;;12.57;76.78
35892;BME280;21993;42.672;23.296;2023-03-11T00:56:25;92883.59;;;12.51;77.00
35892;BME280;21993;42.672;23.296;2023-03-11T00:58:50;92875.91;;;12.49;76.87
35892;BME280;21993;42.672;23.296;2023-03-11T01:01:18;92876.44;;;12.38;75.75
35892;BME280;21993;42.672;23.296;2023-03-11T01:03:44;92873.22;;;12.43;75.46
35892;BME280;21993;42.672;23.296;2023-03-11T01:06:09;92873.41;;;12.41;75.64
35892;BME280;21993;42.672;23.296;2023-03-11T01:08:35;92870.97;;;12.39;75.68
35892;BME280;21993;42.672;23.296;2023-03-11T01:11:01;92872.00;;;12.38;76.25
35892;BME280;21993;42.672;23.296;2023-03-11T01:13:28;92864.75;;;12.47;76.16
35892;BME280;21993;42.672;23.296;2023-03-11T01:15:54;92854.91;;;12.56;76.38
35892;BME280;21993;42.672;23.296;2023-03-11T01:18:19;92853.06;;;12.56;75.87
35892;BME280;21993;42.672;23.296;2023-03-11T01:20:45;92837.28;;;12.56;76.04
35892;BME280;21993;42.672;23.296;2023-03-11T01:23:12;92833.22;;;12.54;76.49
35892;BME280;21993;42.672;23.296;2023-03-11T01:25:38;92824.53;;;12.53;76.77
35892;BME280;21993;42.672;23.296;2023-03-11T01:28:04;92813.56;;;12.50;76.71
35892;BME280;21993;42.672;23.296;2023-03-11T01:30:31;92817.94;;;12.36;77.11
35892;BME280;21993;42.672;23.296;2023-03-11T01:32:57;92808.69;;;12.19;77.37
35892;BME280;21993;42.672;23.296;2023-03-11T01:35:25;92797.16;;;12.13;77.74
35892;BME280;21993;42.672;23.296;2023-03-11T01:37:50;92798.72;;;12.07;77.50
35892;BME280;21993;42.672;23.296;2023-03-11T01:40:35;92803.84;;;12.16;77.46
35892;BME280;21993;42.672;23.296;2023-03-11T01:43:02;92795.19;;;12.22;77.65
35892;BME280;21993;42.672;23.296;2023-03-11T01:48:26;92771.09;;;11.90;78.11
35892;BME280;21993;42.672;23.296;2023-03-11T01:50:53;92778.38;;;11.88;78.48
35892;BME280;21993;42.672;23.296;2023-03-11T01:53:18;92768.25;;;11.92;78.94
35892;BME280;21993;42.672;23.296;2023-03-11T01:55:46;92800.59;;;11.86;78.63
35892;BME280;21993;42.672;23.296;2023-03-11T01:58:23;92805.69;;;11.94;79.00
35892;BME280;21993;42.672;23.296;2023-03-11T02:00:49;92820.09;;;11.98;78.75
35892;BME280;21993;42.672;23.296;2023-03-11T02:03:19;92812.47;;;12.03;78.55
35892;BME280;21993;42.672;23.296;2023-03-11T02:05:48;92814.72;;;11.84;77.99
35892;BME280;21993;42.672;23.296;2023-03-11T02:08:15;92815.03;;;11.96;76.88
35892;BME280;21993;42.672;23.296;2023-03-11T02:10:41;92831.50;;;11.83;77.86
35892;BME280;21993;42.672;23.296;2023-03-11T02:13:08;92836.75;;;11.62;78.37
35892;BME280;21993;42.672;23.296;2023-03-11T02:15:34;92846.44;;;11.62;78.74
35892;BME280;21993;42.672;23.296;2023-03-11T02:18:02;92839.38;;;11.62;78.50
35892;BME280;21993;42.672;23.296;2023-03-11T02:23:28;92858.28;;;11.72;78.39
35892;BME280;21993;42.672;23.296;2023-03-11T02:28:27;92868.56;;;11.89;77.51
35892;BME280;21993;42.672;23.296;2023-03-11T02:30:54;92869.31;;;11.82;78.18
35892;BME280;21993;42.672;23.296;2023-03-11T02:33:22;92863.50;;;11.87;78.54
35892;BME280;21993;42.672;23.296;2023-03-11T02:35:49;92861.91;;;11.93;78.38
35892;BME280;21993;42.672;23.296;2023-03-11T02:38:14;92861.16;;;11.99;78.38
35892;BME280;21993;42.672;23.296;2023-03-11T02:40:48;92857.91;;;11.97;77.59
35892;BME280;21993;42.672;23.296;2023-03-11T02:43:17;92855.69;;;11.57;74.67
35892;BME280;21993;42.672;23.296;2023-03-11T02:45:44;92845.56;;;11.54;72.63
35892;BME280;21993;42.672;23.296;2023-03-11T02:48:11;92865.47;;;11.64;71.76
35892;BME280;21993;42.672;23.296;2023-03-11T02:50:38;92851.50;;;11.63;71.03
35892;BME280;21993;42.672;23.296;2023-03-11T02:53:04;92868.41;;;11.54;70.95
35892;BME280;21993;42.672;23.296;2023-03-11T02:55:30;92859.31;;;11.56;71.25
35892;BME280;21993;42.672;23.296;2023-03-11T02:57:55;92863.47;;;11.66;71.83
35892;BME280;21993;42.672;23.296;2023-03-11T03:00:21;92854.44;;;11.75;70.76
35892;BME280;21993;42.672;23.296;2023-03-11T03:02:47;92856.97;;;11.83;71.31
35892;BME280;21993;42.672;23.296;2023-03-11T03:05:17;92855.97;;;11.84;71.14
35892;BME280;21993;42.672;23.296;2023-03-11T03:07:47;92850.22;;;11.95;70.98
35892;BME280;21993;42.672;23.296;2023-03-11T03:10:14;92855.38;;;12.10;69.60
35892;BME280;21993;42.672;23.296;2023-03-11T03:12:40;92854.47;;;12.24;69.38
35892;BME280;21993;42.672;23.296;2023-03-11T03:15:06;92862.97;;;12.26;68.88
35892;BME280;21993;42.672;23.296;2023-03-11T03:17:32;92852.59;;;12.18;68.61
35892;BME280;21993;42.672;23.296;2023-03-11T03:19:57;92852.25;;;12.21;68.14
35892;BME280;21993;42.672;23.296;2023-03-11T03:22:23;92851.09;;;12.30;67.83
35892;BME280;21993;42.672;23.296;2023-03-11T03:24:52;92852.25;;;12.21;67.35
35892;BME280;21993;42.672;23.296;2023-03-11T03:27:17;92849.06;;;12.32;67.05
35892;BME280;21993;42.672;23.296;2023-03-11T03:29:43;92864.31;;;12.44;67.79
35892;BME280;21993;42.672;23.296;2023-03-11T03:32:08;92855.66;;;12.50;66.54
35892;BME280;21993;42.672;23.296;2023-03-11T03:34:33;92860.56;;;12.59;66.67
35892;BME280;21993;42.672;23.296;2023-03-11T03:36:59;92862.44;;;12.31;66.62
35892;BME280;21993;42.672;23.296;2023-03-11T03:39:24;92851.09;;;12.30;65.61
35892;BME280;21993;42.672;23.296;2023-03-11T03:41:50;92848.81;;;12.21;65.18
35892;BME280;21993;42.672;23.296;2023-03-11T03:44:15;92860.59;;;12.31;64.73
35892;BME280;21993;42.672;23.296;2023-03-11T03:46:40;92856.41;;;12.37;64.52
35892;BME280;21993;42.672;23.296;2023-03-11T03:49:06;92856.72;;;12.27;65.51
35892;BME280;21993;42.672;23.296;2023-03-11T03:51:32;92854.28;;;12.26;65.23
35892;BME280;21993;42.672;23.296;2023-03-11T03:53:58;92846.72;;;12.44;65.10
35892;BME280;21993;42.672;23.296;2023-03-11T03:56:23;92860.16;;;12.56;64.94
35892;BME280;21993;42.672;23.296;2023-03-11T03:58:48;92847.81;;;12.56;64.00
35892;BME280;21993;42.672;23.296;2023-03-11T04:01:14;92829.34;;;12.50;63.80
35892;BME280;21993;42.672;23.296;2023-03-11T04:03:40;92845.09;;;12.43;63.59
35892;BME280;21993;42.672;23.296;2023-03-11T04:06:14;92844.94;;;12.51;63.56
35892;BME280;21993;42.672;23.296;2023-03-11T04:08:40;92841.69;;;12.49;63.80
35892;BME280;21993;42.672;23.296;2023-03-11T04:11:05;92834.41;;;12.51;63.01
35892;BME280;21993;42.672;23.296;2023-03-11T04:13:31;92836.69;;;12.54;63.13
35892;BME280;21993;42.672;23.296;2023-03-11T04:15:57;92836.53;;;12.69;63.39
35892;BME280;21993;42.672;23.296;2023-03-11T04:18:22;92844.88;;;12.73;62.55
35892;BME280;21993;42.672;23.296;2023-03-11T04:20:47;92848.06;;;12.68;62.24
35892;BME280;21993;42.672;23.296;2023-03-11T04:23:13;92860.63;;;12.66;62.69
35892;BME280;21993;42.672;23.296;2023-03-11T04:25:38;92849.91;;;12.67;62.59
35892;BME280;21993;42.672;23.296;2023-03-11T04:28:04;92855.81;;;12.76;62.08
35892;BME280;21993;42.672;23.296;2023-03-11T04:30:29;92852.63;;;12.81;62.13
35892;BME280;21993;42.672;23.296;2023-03-11T04:32:55;92849.38;;;12.79;61.95
35892;BME280;21993;42.672;23.296;2023-03-11T04:35:20;92850.13;;;12.73;62.41
35892;BME280;21993;42.672;23.296;2023-03-11T04:37:45;92842.28;;;12.79;62.01
35892;BME280;21993;42.672;23.296;2023-03-11T04:40:11;92849.16;;;12.80;61.81
35892;BME280;21993;42.672;23.296;2023-03-11T04:42:36;92851.34;;;12.70;62.74
35892;BME280;21993;42.672;23.296;2023-03-11T04:45:04;92843.69;;;12.82;61.21
35892;BME280;21993;42.672;23.296;2023-03-11T04:47:29;92855.75;;;12.63;60.58
35892;BME280;21993;42.672;23.296;2023-03-11T04:49:55;92864.25;;;12.65;61.07
35892;BME280;21993;42.672;23.296;2023-03-11T04:52:21;92861.97;;;12.55;60.56
35892;BME280;21993;42.672;23.296;2023-03-11T04:54:46;92864.69;;;12.68;60.29
35892;BME280;21993;42.672;23.296;2023-03-11T04:57:11;92865.50;;;12.69;61.02
35892;BME280;21993;42.672;23.296;2023-03-11T04:59:37;92855.81;;;12.76;61.00
35892;BME280;21993;42.672;23.296;2023-03-11T05:02:03;92871.19;;;12.73;60.68
35892;BME280;21993;42.672;23.296;2023-03-11T05:04:28;92880.56;;;12.82;60.19
35892;BME280;21993;42.672;23.296;2023-03-11T05:06:53;92876.75;;;12.91;60.42
35892;BME280;21993;42.672;23.296;2023-03-11T05:09:19;92886.41;;;12.77;60.59
35892;BME280;21993;42.672;23.296;2023-03-11T05:11:44;92887.41;;;12.76;60.44
35892;BME280;21993;42.672;23.296;2023-03-11T05:14:10;92893.16;;;12.86;60.65
35892;BME280;21993;42.672;23.296;2023-03-11T05:16:35;92891.94;;;12.89;59.98
35892;BME280;21993;42.672;23.296;2023-03-11T05:19:00;92883.84;;;12.90;59.80
35892;BME280;21993;42.672;23.296;2023-03-11T05:21:46;92909.53;;;12.82;59.37
35892;BME280;21993;42.672;23.296;2023-03-11T05:24:11;92903.00;;;12.78;59.79
35892;BME280;21993;42.672;23.296;2023-03-11T05:26:36;92920.00;;;12.75;59.82
35892;BME280;21993;42.672;23.296;2023-03-11T05:29:02;92907.44;;;12.71;60.20
35892;BME280;21993;42.672;23.296;2023-03-11T05:31:27;92913.53;;;12.78;60.16
35892;BME280;21993;42.672;23.296;2023-03-11T05:33:52;92921.53;;;12.91;60.09
35892;BME280;21993;42.672;23.296;2023-03-11T05:36:18;92914.25;;;12.93;60.52
35892;BME280;21993;42.672;23.296;2023-03-11T05:38:43;92917.38;;;13.03;59.97
35892;BME280;21993;42.672;23.296;2023-03-11T05:41:09;92926.03;;;12.97;60.30
35892;BME280;21993;42.672;23.296;2023-03-11T05:43:34;92922.16;;;12.93;60.16
35892;BME280;21993;42.672;23.296;2023-03-11T05:45:59;92919.50;;;12.93;60.46
35892;BME280;21993;42.672;23.296;2023-03-11T05:48:25;92923.16;;;12.92;60.50
35892;BME280;21993;42.672;23.296;2023-03-11T05:50:50;92938.69;;;12.80;60.42
35892;BME280;21993;42.672;23.296;2023-03-11T05:53:16;92935.44;;;12.78;60.68
35892;BME280;21993;42.672;23.296;2023-03-11T05:55:41;92942.00;;;12.89;61.12
35892;BME280;21993;42.672;23.296;2023-03-11T05:58:06;92954.59;;;13.00;60.82
35892;BME280;21993;42.672;23.296;2023-03-11T06:00:32;92962.09;;;12.96;60.43
35892;BME280;21993;42.672;23.296;2023-03-11T06:02:57;92963.31;;;13.01;60.97
35892;BME280;21993;42.672;23.296;2023-03-11T06:05:23;92966.56;;;13.03;60.87
35892;BME280;21993;42.672;23.296;2023-03-11T06:07:48;92963.31;;;13.01;60.91
35892;BME280;21993;42.672;23.296;2023-03-11T06:10:13;92966.50;;;12.89;61.51
35892;BME280;21993;42.672;23.296;2023-03-11T06:12:39;92964.09;;;12.94;60.99
35892;BME280;21993;42.672;23.296;2023-03-11T06:15:06;92977.53;;;13.06;61.47
35892;BME280;21993;42.672;23.296;2023-03-11T06:17:31;92978.59;;;13.12;61.75
35892;BME280;21993;42.672;23.296;2023-03-11T06:19:57;92971.16;;;12.94;63.00
35892;BME280;21993;42.672;23.296;2023-03-11T06:22:22;92970.03;;;13.03;63.12
35892;BME280;21993;42.672;23.296;2023-03-11T06:24:47;92969.03;;;13.11;63.71
35892;BME280;21993;42.672;23.296;2023-03-11T06:27:13;92974.91;;;13.06;63.28
35892;BME280;21993;42.672;23.296;2023-03-11T06:29:38;92972.78;;;12.88;63.83
35892;BME280;21993;42.672;23.296;2023-03-11T06:32:05;92970.22;;;13.02;63.66
35892;BME280;21993;42.672;23.296;2023-03-11T06:34:31;92966.91;;;12.86;63.65
35892;BME280;21993;42.672;23.296;2023-03-11T06:36:56;92970.19;;;12.95;63.54
35892;BME280;21993;42.672;23.296;2023-03-11T06:39:23;92979.13;;;13.01;62.81
35892;BME280;21993;42.672;23.296;2023-03-11T06:41:49;92977.59;;;12.85;63.37
35892;BME280;21993;42.672;23.296;2023-03-11T06:44:14;92984.97;;;12.96;63.44
35892;BME280;21993;42.672;23.296;2023-03-11T06:46:39;92976.69;;;12.99;63.19
35892;BME280;21993;42.672;23.296;2023-03-11T06:49:05;92970.69;;;12.84;62.45
35892;BME280;21993;42.672;23.296;2023-03-11T06:51:30;92971.09;;;12.81;62.28
35892;BME280;21993;42.672;23.296;2023-03-11T06:53:56;92974.09;;;12.78;61.38
35892;BME280;21993;42.672;23.296;2023-03-11T06:56:22;92978.66;;;12.90;62.04
35892;BME280;21993;42.672;23.296;2023-03-11T06:58:48;92978.72;;;12.97;62.02
35892;BME280;21993;42.672;23.296;2023-03-11T07:01:18;92985.66;;;13.05;61.62
35892;BME280;21993;42.672;23.296;2023-03-11T07:03:45;92991.06;;;12.96;61.46
35892;BME280;21993;42.672;23.296;2023-03-11T07:06:16;92987.41;;;12.98;62.00
35892;BME280;21993;42.672;23.296;2023-03-11T07:08:42;92990.06;;;12.98;62.51
35892;BME280;21993;42.672;23.296;2023-03-11T07:11:11;92976.78;;;12.84;63.28
35892;BME280;21993;42.672;23.296;2023-03-11T07:13:37;92979.94;;;13.01;63.30
35892;BME280;21993;42.672;23.296;2023-03-11T07:18:29;92977.81;;;13.18;62.47
35892;BME280;21993;42.672;23.296;2023-03-11T07:20:55;92970.38;;;13.21;62.09
35892;BME280;21993;42.672;23.296;2023-03-11T07:23:20;92971.53;;;13.19;61.31
35892;BME280;21993;42.672;23.296;2023-03-11T07:25:46;92975.44;;;13.23;61.71
35892;BME280;21993;42.672;23.296;2023-03-11T07:28:12;92961.25;;;13.24;61.81
35892;BME280;21993;42.672;23.296;2023-03-11T07:30:38;92957.44;;;13.33;63.02
35892;BME280;21993;42.672;23.296;2023-03-11T07:33:03;92962.59;;;13.13;62.35
35892;BME280;21993;42.672;23.296;2023-03-11T07:35:29;92947.47;;;13.22;61.15
35892;BME280;21993;42.672;23.296;2023-03-11T07:37:54;92939.78;;;13.20;61.33
35892;BME280;21993;42.672;23.296;2023-03-11T07:40:19;92940.44;;;13.36;61.74
35892;BME280;21993;42.672;23.296;2023-03-11T07:42:45;92928.69;;;13.38;61.74
35892;BME280;21993;42.672;23.296;2023-03-11T07:45:10;92928.63;;;13.25;62.08
35892;BME280;21993;42.672;23.296;2023-03-11T07:47:36;92927.69;;;13.39;60.42
35892;BME280;21993;42.672;23.296;2023-03-11T07:50:01;92925.72;;;13.55;58.85
35892;BME280;21993;42.672;23.296;2023-03-11T07:52:30;92920.25;;;13.56;58.66
35892;BME280;21993;42.672;23.296;2023-03-11T07:54:55;92923.91;;;13.62;58.14
35892;BME280;21993;42.672;23.296;2023-03-11T07:57:21;92925.16;;;13.66;58.03
35892;BME280;21993;42.672;23.296;2023-03-11T07:59:46;92919.91;;;13.72;57.96
35892;BME280;21993;42.672;23.296;2023-03-11T08:02:11;92905.25;;;13.70;58.26
35892;BME280;21993;42.672;23.296;2023-03-11T08:04:37;92892.50;;;13.73;57.67
35892;BME280;21993;42.672;23.296;2023-03-11T08:07:02;92887.88;;;13.89;57.88
35892;BME280;21993;42.672;23.296;2023-03-11T08:09:28;92884.03;;;13.98;57.70
35892;BME280;21993;42.672;23.296;2023-03-11T08:11:53;92881.22;;;14.06;56.37
35892;BME280;21993;42.672;23.296;2023-03-11T08:14:18;92882.19;;;14.12;56.79
35892;BME280;21993;42.672;23.296;2023-03-11T08:16:44;92874.91;;;14.27;55.28
35892;BME280;21993;42.672;23.296;2023-03-11T08:19:13;92863.75;;;14.38;54.18
35892;BME280;21993;42.672;23.296;2023-03-11T08:21:38;92870.28;;;14.55;54.42
35892;BME280;21993;42.672;23.296;2023-03-11T08:24:04;92860.09;;;14.59;54.63
35892;BME280;21993;42.672;23.296;2023-03-11T08:26:30;92859.03;;;14.86;53.31
35892;BME280;21993;42.672;23.296;2023-03-11T08:28:57;92855.94;;;14.96;53.18
35892;BME280;21993;42.672;23.296;2023-03-11T08:31:25;92847.16;;;15.15;52.22
35892;BME280;21993;42.672;23.296;2023-03-11T08:33:54;92838.63;;;15.13;53.08
35892;BME280;21993;42.672;23.296;2023-03-11T08:36:21;92834.06;;;15.34;52.44
35892;BME280;21993;42.672;23.296;2023-03-11T08:38:47;92834.38;;;15.51;51.51
35892;BME280;21993;42.672;23.296;2023-03-11T08:41:13;92829.06;;;15.57;52.09
35892;BME280;21993;42.672;23.296;2023-03-11T08:43:38;92831.34;;;15.85;51.20
35892;BME280;21993;42.672;23.296;2023-03-11T08:46:05;92832.91;;;15.99;50.29
35892;BME280;21993;42.672;23.296;2023-03-11T08:48:31;92823.94;;;16.00;49.34
35892;BME280;21993;42.672;23.296;2023-03-11T08:50:57;92835.75;;;15.98;50.34
35892;BME280;21993;42.672;23.296;2023-03-11T08:53:23;92818.53;;;16.14;49.70
35892;BME280;21993;42.672;23.296;2023-03-11T08:55:51;92820.09;;;16.21;49.05
35892;BME280;21993;42.672;23.296;2023-03-11T08:58:18;92815.94;;;16.32;49.84
35892;BME280;21993;42.672;23.296;2023-03-11T09:00:43;92805.28;;;16.39;49.07
35892;BME280;21993;42.672;23.296;2023-03-11T09:03:09;92807.00;;;16.51;48.34
35892;BME280;21993;42.672;23.296;2023-03-11T09:05:35;92813.06;;;16.58;47.91
35892;BME280;21993;42.672;23.296;2023-03-11T09:08:01;92819.69;;;16.68;48.31
35892;BME280;21993;42.672;23.296;2023-03-11T09:10:28;92824.16;;;16.74;47.41
35892;BME280;21993;42.672;23.296;2023-03-11T09:12:53;92814.44;;;16.86;47.46
35892;BME280;21993;42.672;23.296;2023-03-11T09:15:19;92814.59;;;16.91;47.49
35892;BME280;21993;42.672;23.296;2023-03-11T09:17:44;92811.47;;;16.94;47.18
35892;BME280;21993;42.672;23.296;2023-03-11T09:20:12;92809.00;;;16.99;47.39
35892;BME280;21993;42.672;23.296;2023-03-11T09:22:37;92814.66;;;17.03;47.20
35892;BME280;21993;42.672;23.296;2023-03-11T09:25:03;92812.16;;;17.08;47.45
35892;BME280;21993;42.672;23.296;2023-03-11T09:27:28;92808.53;;;17.02;47.61
35892;BME280;21993;42.672;23.296;2023-03-11T09:29:54;92804.19;;;17.08;48.12
35892;BME280;21993;42.672;23.296;2023-03-11T09:32:19;92787.19;;;17.15;47.62
35892;BME280;21993;42.672;23.296;2023-03-11T09:34:45;92797.28;;;17.07;48.63
35892;BME280;21993;42.672;23.296;2023-03-11T09:37:10;92779.00;;;17.17;48.38
35892;BME280;21993;42.672;23.296;2023-03-11T09:39:35;92777.66;;;17.26;47.43
35892;BME280;21993;42.672;23.296;2023-03-11T09:42:09;92769.00;;;17.31;47.76
35892;BME280;21993;42.672;23.296;2023-03-11T09:48:11;92775.84;;;17.38;45.99
35892;BME280;21993;42.672;23.296;2023-03-11T10:00:47;92777.66;;;17.86;44.67
35892;BME280;21993;42.672;23.296;2023-03-11T10:05:54;92767.38;;;17.90;42.71
35892;BME280;21993;42.672;23.296;2023-03-11T10:08:42;92773.53;;;18.02;43.32
35892;BME280;21993;42.672;23.296;2023-03-11T10:14:20;92796.53;;;18.20;42.83
35892;BME280;21993;42.672;23.296;2023-03-11T10:22:01;92796.19;;;18.16;42.27
35892;BME280;21993;42.672;23.296;2023-03-11T10:27:20;92804.13;;;18.05;42.12
35892;BME280;21993;42.672;23.296;2023-03-11T10:32:43;92801.38;;;18.23;41.99
35892;BME280;21993;42.672;23.296;2023-03-11T10:35:19;92793.41;;;18.11;42.17
35892;BME280;21993;42.672;23.296;2023-03-11T10:37:58;92791.22;;;18.08;42.62
35892;BME280;21993;42.672;23.296;2023-03-11T10:40:30;92782.44;;;18.08;42.19
35892;BME280;21993;42.672;23.296;2023-03-11T10:42:59;92788.13;;;17.81;42.85
35892;BME280;21993;42.672;23.296;2023-03-11T10:45:31;92781.69;;;17.77;43.70
35892;BME280;21993;42.672;23.296;2023-03-11T10:47:57;92783.81;;;17.68;43.17
35892;BME280;21993;42.672;23.296;2023-03-11T10:50:23;92795.47;;;17.67;42.85
35892;BME280;21993;42.672;23.296;2023-03-11T10:53:20;92804.75;;;17.77;42.95
35892;BME280;21993;42.672;23.296;2023-03-11T10:55:51;92814.13;;;17.61;43.18
35892;BME280;21993;42.672;23.296;2023-03-11T10:58:21;92819.97;;;17.51;43.59
35892;BME280;21993;42.672;23.296;2023-03-11T11:03:25;92808.00;;;17.30;43.86
35892;BME280;21993;42.672;23.296;2023-03-11T11:06:22;92807.75;;;17.32;43.71
35892;BME280;21993;42.672;23.296;2023-03-11T11:08:47;92814.47;;;17.34;45.05
35892;BME280;21993;42.672;23.296;2023-03-11T11:11:22;92801.88;;;17.30;44.92
35892;BME280;21993;42.672;23.296;2023-03-11T11:13:57;92803.91;;;17.46;45.14
35892;BME280;21993;42.672;23.296;2023-03-11T11:16:23;92792.81;;;17.37;44.94
35892;BME280;21993;42.672;23.296;2023-03-11T11:21:36;92797.16;;;17.62;44.68
35892;BME280;21993;42.672;23.296;2023-03-11T11:26:30;92791.59;;;17.52;44.50
35892;BME280;21993;42.672;23.296;2023-03-11T11:29:06;92797.69;;;17.40;45.60
35892;BME280;21993;42.672;23.296;2023-03-11T11:31:32;92782.50;;;17.29;49.08
35892;BME280;21993;42.672;23.296;2023-03-11T11:33:58;92774.13;;;17.32;49.31
35892;BME280;21993;42.672;23.296;2023-03-11T11:36:32;92770.66;;;17.13;49.32
35892;BME280;21993;42.672;23.296;2023-03-11T11:39:00;92765.66;;;17.24;48.21
35892;BME280;21993;42.672;23.296;2023-03-11T11:41:31;92759.66;;;17.28;48.28
35892;BME280;21993;42.672;23.296;2023-03-11T11:44:05;92757.47;;;17.25;47.48
35892;BME280;21993;42.672;23.296;2023-03-11T11:46:43;92744.25;;;17.37;46.53
35892;BME280;21993;42.672;23.296;2023-03-11T11:49:20;92735.72;;;17.35;46.50
35892;BME280;21993;42.672;23.296;2023-03-11T11:51:52;92738.81;;;17.32;48.10
35892;BME280;21993;42.672;23.296;2023-03-11T11:57:11;92716.38;;;17.46;47.17
35892;BME280;21993;42.672;23.296;2023-03-11T11:59:37;92725.84;;;17.54;46.42
35892;BME280;21993;42.672;23.296;2023-03-11T12:26:45;92720.78;;;18.06;40.88
35892;BME280;21993;42.672;23.296;2023-03-11T12:31:50;92713.50;;;18.13;40.92
35892;BME280;21993;42.672;23.296;2023-03-11T12:34:19;92722.84;;;17.92;41.07
35892;BME280;21993;42.672;23.296;2023-03-11T12:36:47;92726.56;;;17.61;41.88
35892;BME280;21993;42.672;23.296;2023-03-11T12:39:32;92724.22;;;17.83;42.36
35892;BME280;21993;42.672;23.296;2023-03-11T12:44:39;92723.09;;;17.60;42.78
35892;BME280;21993;42.672;23.296;2023-03-11T12:49:43;92735.72;;;17.35;43.70
35892;BME280;21993;42.672;23.296;2023-03-11T12:54:42;92726.34;;;17.62;44.17
35892;BME280;21993;42.672;23.296;2023-03-11T12:57:33;92721.84;;;17.63;43.59
35892;BME280;21993;42.672;23.296;2023-03-11T13:00:14;92734.56;;;17.72;43.29
35892;BME280;21993;42.672;23.296;2023-03-11T13:08:18;92746.53;;;17.63;44.27
35892;BME280;21993;42.672;23.296;2023-03-11T13:10:46;92756.91;;;17.65;44.20
35892;BME280;21993;42.672;23.296;2023-03-11T13:13:28;92771.06;;;17.77;44.46
35892;BME280;21993;42.672;23.296;2023-03-11T13:15:53;92785.19;;;17.59;44.71
35892;BME280;21993;42.672;23.296;2023-03-11T13:18:24;92783.41;;;17.53;45.15
35892;BME280;21993;42.672;23.296;2023-03-11T13:23:22;92797.81;;;17.45;45.61
35892;BME280;21993;42.672;23.296;2023-03-11T13:28:44;92825.91;;;17.35;45.76
35892;BME280;21993;42.672;23.296;2023-03-11T13:42:20;92876.59;;;15.77;58.83
35892;BME280;21993;42.672;23.296;2023-03-11T13:44:50;92878.28;;;15.65;57.87
35892;BME280;21993;42.672;23.296;2023-03-11T13:47:17;92889.38;;;15.35;59.63
35892;BME280;21993;42.672;23.296;2023-03-11T13:49:49;92893.56;;;14.98;60.69
35892;BME280;21993;42.672;23.296;2023-03-11T13:52:25;92894.16;;;15.00;59.61
35892;BME280;21993;42.672;23.296;2023-03-11T13:55:40;92899.66;;;15.05;62.70
35892;BME280;21993;42.672;23.296;2023-03-11T13:57:56;92893.19;;;14.81;63.30
35892;BME280;21993;42.672;23.296;2023-03-11T14:00:27;92876.97;;;14.58;63.25
35892;BME280;21993;42.672;23.296;2023-03-11T14:02:55;92873.69;;;14.69;63.03
35892;BME280;21993;42.672;23.296;2023-03-11T14:05:29;92881.81;;;14.74;63.01
35892;BME280;21993;42.672;23.296;2023-03-11T14:08:31;92890.34;;;14.76;63.15
35892;BME280;21993;42.672;23.296;2023-03-11T14:11:02;92894.81;;;14.23;65.13
35892;BME280;21993;42.672;23.296;2023-03-11T14:13:30;92880.19;;;14.33;65.34
35892;BME280;21993;42.672;23.296;2023-03-11T14:16:07;92879.38;;;14.40;65.14
35892;BME280;21993;42.672;23.296;2023-03-11T14:18:35;92887.09;;;14.15;64.76
35892;BME280;21993;42.672;23.296;2023-03-11T14:21:04;92890.34;;;14.17;64.62
35892;BME280;21993;42.672;23.296;2023-03-11T14:23:35;92879.56;;;14.18;64.29
35892;BME280;21993;42.672;23.296;2023-03-11T14:26:11;92890.13;;;14.18;63.58
35892;BME280;21993;42.672;23.296;2023-03-11T14:28:40;92891.16;;;14.30;64.62
35892;BME280;21993;42.672;23.296;2023-03-11T14:31:06;92892.19;;;14.49;63.77
35892;BME280;21993;42.672;23.296;2023-03-11T14:33:53;92890.97;;;14.52;65.19
35892;BME280;21993;42.672;23.296;2023-03-11T14:36:19;92884.69;;;14.59;63.42
35892;BME280;21993;42.672;23.296;2023-03-11T14:38:45;92887.94;;;14.55;63.53
35892;BME280;21993;42.672;23.296;2023-03-11T14:41:12;92895.44;;;14.51;63.59